Time;durP1;ratioP1;P1;durP2;ratioP2;P2;SDS_P1;SDS_P2;PMS_P1;PMS_P2;Temp;Humidity;BMP_temperature;BMP_pressure;BME280_temperature;BME280_humidity;BME280_pressure;Samples;Min_cycle;Max_cycle;Signal;HPM_P1;HPM_P2
2023/11/30 00:00:22;;;;;;;73.93;36.08;;;-1.40;99.90;;;;;;5072656;28;20035;-65
2023/11/30 00:02:47;;;;;;;80.28;38.40;;;-1.40;99.90;;;;;;5072572;28;20024;-64
2023/11/30 00:05:13;;;;;;;76.90;38.10;;;-1.40;99.90;;;;;;5072575;28;20016;-66
2023/11/30 00:07:38;;;;;;;72.22;36.03;;;-1.40;99.90;;;;;;5072379;28;20038;-64
2023/11/30 00:10:04;;;;;;;77.25;38.22;;;-1.40;99.90;;;;;;5072311;28;20052;-64
2023/11/30 00:12:30;;;;;;;84.93;39.15;;;-1.40;99.90;;;;;;5072543;28;20029;-64
2023/11/30 00:14:55;;;;;;;86.18;40.00;;;-1.40;99.90;;;;;;5072995;28;20052;-64
2023/11/30 00:17:21;;;;;;;85.80;38.03;;;-1.40;99.90;;;;;;5072562;28;20020;-64
2023/11/30 00:19:46;;;;;;;79.28;37.55;;;-1.40;99.90;;;;;;5072704;28;20082;-64
2023/11/30 00:22:12;;;;;;;75.97;36.17;;;-1.40;99.90;;;;;;5073009;28;20020;-64
2023/11/30 00:24:37;;;;;;;72.18;34.78;;;-1.50;99.90;;;;;;5072788;28;20470;-65
2023/11/30 00:27:04;;;;;;;70.97;34.83;;;-1.50;99.90;;;;;;5072817;28;20047;-64
2023/11/30 00:29:29;;;;;;;78.07;36.97;;;-1.50;99.90;;;;;;5072589;28;20102;-64
2023/11/30 00:31:55;;;;;;;81.47;36.75;;;-1.40;99.90;;;;;;5072871;28;20033;-64
2023/11/30 00:34:20;;;;;;;75.65;33.80;;;-1.40;99.90;;;;;;5072775;28;20032;-64
2023/11/30 00:36:46;;;;;;;63.85;32.13;;;-1.40;99.90;;;;;;5072409;28;20075;-65
2023/11/30 00:39:11;;;;;;;68.60;32.88;;;-1.40;99.90;;;;;;5072682;28;20021;-64
2023/11/30 00:41:37;;;;;;;62.65;30.73;;;-1.40;99.90;;;;;;5072550;28;20025;-68
2023/11/30 00:44:02;;;;;;;69.28;33.08;;;-1.50;99.90;;;;;;5073554;28;20105;-64
2023/11/30 00:46:28;;;;;;;75.18;34.70;;;-1.40;99.90;;;;;;5075873;28;20031;-64
2023/11/30 00:48:53;;;;;;;66.90;33.20;;;-1.40;99.90;;;;;;5076238;28;20107;-64
2023/11/30 00:51:19;;;;;;;76.95;32.60;;;-1.40;99.90;;;;;;5076349;28;20038;-64
2023/11/30 00:53:44;;;;;;;71.60;32.38;;;-1.40;99.90;;;;;;5076282;28;20086;-64
2023/11/30 00:56:11;;;;;;;61.50;30.48;;;-1.30;99.90;;;;;;5076089;28;20028;-64
2023/11/30 00:58:37;;;;;;;62.40;29.17;;;-1.30;99.90;;;;;;5076083;28;20017;-64
2023/11/30 01:01:03;;;;;;;61.40;29.83;;;-1.30;99.90;;;;;;5075959;28;20032;-65
2023/11/30 01:03:28;;;;;;;78.20;34.83;;;-1.30;99.90;;;;;;5076040;28;20029;-64
2023/11/30 01:05:54;;;;;;;68.70;32.47;;;-1.30;99.90;;;;;;5075930;28;20501;-65
2023/11/30 01:08:19;;;;;;;76.07;33.50;;;-1.30;99.90;;;;;;5075979;28;20033;-64
2023/11/30 01:10:45;;;;;;;73.50;33.13;;;-1.20;99.90;;;;;;5075920;28;20043;-64
2023/11/30 01:13:10;;;;;;;65.88;31.73;;;-1.20;99.90;;;;;;5075837;28;20363;-64
2023/11/30 01:15:36;;;;;;;66.20;30.50;;;-1.20;99.90;;;;;;5075355;28;20036;-64
2023/11/30 01:18:03;;;;;;;68.80;31.13;;;-1.20;99.90;;;;;;5075452;28;20021;-64
2023/11/30 01:20:29;;;;;;;73.10;33.25;;;-1.20;99.90;;;;;;5075769;28;20390;-64
2023/11/30 01:22:55;;;;;;;72.65;31.92;;;-1.10;99.90;;;;;;5075703;28;20032;-65
2023/11/30 01:25:20;;;;;;;73.60;34.00;;;-1.10;99.90;;;;;;5075648;28;20083;-64
2023/11/30 01:27:46;;;;;;;73.88;32.30;;;-1.10;99.90;;;;;;5075694;28;20036;-65
2023/11/30 01:30:12;;;;;;;81.57;36.30;;;-1.10;99.90;;;;;;5075662;28;20032;-64
2023/11/30 01:32:38;;;;;;;70.22;32.65;;;-1.00;99.90;;;;;;5075572;28;20028;-64
2023/11/30 01:35:04;;;;;;;72.18;33.33;;;-1.00;99.90;;;;;;5075419;28;20063;-65
2023/11/30 01:37:30;;;;;;;67.85;30.30;;;-1.00;99.90;;;;;;5074937;28;20044;-64
2023/11/30 01:39:56;;;;;;;64.05;30.33;;;-1.10;99.90;;;;;;5075189;28;20021;-64
2023/11/30 01:42:21;;;;;;;67.13;29.73;;;-1.10;99.90;;;;;;5075208;28;20025;-64
2023/11/30 01:44:47;;;;;;;57.22;27.15;;;-1.10;99.90;;;;;;5075126;28;20021;-65
2023/11/30 01:47:13;;;;;;;65.20;28.92;;;-1.10;99.90;;;;;;5075289;28;20101;-65
2023/11/30 01:49:39;;;;;;;58.83;28.25;;;-1.20;99.90;;;;;;5075135;28;20032;-65
2023/11/30 01:52:04;;;;;;;57.30;28.88;;;-1.20;99.90;;;;;;5075029;28;20039;-65
2023/11/30 01:54:30;;;;;;;62.80;30.48;;;-1.20;99.90;;;;;;5074734;28;20172;-64
2023/11/30 01:56:56;;;;;;;61.65;28.88;;;-1.20;99.90;;;;;;5074670;28;20035;-65
2023/11/30 01:59:22;;;;;;;61.70;30.38;;;-1.20;99.90;;;;;;5074895;28;20024;-65
2023/11/30 02:01:47;;;;;;;59.42;28.02;;;-1.20;99.90;;;;;;5074909;28;20505;-65
2023/11/30 02:04:15;;;;;;;56.72;28.15;;;-1.20;99.90;;;;;;5074903;28;20056;-67
2023/11/30 02:06:44;;;;;;;71.22;32.08;;;-1.20;99.90;;;;;;5074724;28;20032;-65
2023/11/30 02:09:10;;;;;;;71.82;32.13;;;-1.20;99.90;;;;;;5074890;28;20035;-64
2023/11/30 02:11:37;;;;;;;66.05;29.73;;;-1.10;99.90;;;;;;5074721;28;20021;-65
2023/11/30 02:14:03;;;;;;;73.43;33.72;;;-1.10;99.90;;;;;;5074142;28;20031;-65
2023/11/30 02:16:29;;;;;;;68.25;30.98;;;-1.10;99.90;;;;;;5074533;28;20032;-65
2023/11/30 02:18:54;;;;;;;65.07;29.52;;;-1.10;99.90;;;;;;5074569;28;20435;-65
2023/11/30 02:21:20;;;;;;;56.67;26.33;;;-1.10;99.90;;;;;;5074409;28;20031;-65
2023/11/30 02:23:47;;;;;;;71.22;32.83;;;-1.20;99.90;;;;;;5074470;28;20055;-65
2023/11/30 02:26:13;;;;;;;70.97;32.08;;;-1.20;99.90;;;;;;5074445;28;20044;-64
2023/11/30 02:28:38;;;;;;;60.70;29.02;;;-1.20;99.90;;;;;;5073932;28;20020;-65
2023/11/30 02:31:04;;;;;;;62.22;30.73;;;-1.20;99.90;;;;;;5074333;28;20096;-65
2023/11/30 02:33:29;;;;;;;75.90;32.45;;;-1.30;99.90;;;;;;5074186;28;20119;-64
2023/11/30 02:35:55;;;;;;;67.32;32.40;;;-1.20;99.90;;;;;;5073701;28;20040;-65
2023/11/30 02:38:21;;;;;;;59.58;29.10;;;-1.20;99.90;;;;;;5073961;28;20536;-65
2023/11/30 02:40:47;;;;;;;56.10;27.35;;;-1.20;99.90;;;;;;5074255;28;20382;-65
2023/11/30 02:43:12;;;;;;;69.15;29.50;;;-1.30;99.90;;;;;;5074081;28;20106;-64
2023/11/30 02:45:38;;;;;;;61.85;28.33;;;-1.30;99.90;;;;;;5074045;28;20387;-64
2023/11/30 02:48:03;;;;;;;64.20;29.15;;;-1.40;99.90;;;;;;5073508;28;20029;-64
2023/11/30 02:50:29;;;;;;;70.28;30.88;;;-1.50;99.90;;;;;;5073801;28;20055;-64
2023/11/30 02:52:55;;;;;;;64.88;29.05;;;-1.40;99.90;;;;;;5073947;28;20040;-64
2023/11/30 02:55:21;;;;;;;62.10;28.55;;;-1.50;99.90;;;;;;5073546;28;20371;-64
2023/11/30 02:57:47;;;;;;;65.25;29.60;;;-1.50;99.90;;;;;;5073815;28;20020;-64
2023/11/30 03:00:13;;;;;;;58.83;27.88;;;-1.50;99.90;;;;;;5073732;28;20459;-64
2023/11/30 03:02:39;;;;;;;67.50;29.88;;;-1.50;99.90;;;;;;5073576;28;20048;-64
2023/11/30 03:05:04;;;;;;;63.47;29.42;;;-1.50;99.90;;;;;;5073318;28;20206;-64
2023/11/30 03:07:30;;;;;;;56.40;26.85;;;-1.50;99.90;;;;;;5072833;28;20038;-64
2023/11/30 03:09:55;;;;;;;58.45;27.50;;;-1.60;99.90;;;;;;5073756;28;20035;-64
2023/11/30 03:12:21;;;;;;;54.58;27.25;;;-1.60;99.90;;;;;;5073598;28;20039;-65
2023/11/30 03:14:47;;;;;;;64.70;29.15;;;-1.60;99.90;;;;;;5073637;28;20035;-64
2023/11/30 03:17:12;;;;;;;61.40;27.48;;;-1.70;99.90;;;;;;5073155;28;20394;-65
2023/11/30 03:19:38;;;;;;;56.08;26.25;;;-1.70;99.90;;;;;;5073431;28;20024;-65
2023/11/30 03:22:04;;;;;;;63.03;27.10;;;-1.70;99.90;;;;;;5073518;28;20056;-65
2023/11/30 03:24:30;;;;;;;57.30;27.35;;;-1.70;99.90;;;;;;5073306;28;20033;-64
2023/11/30 03:26:55;;;;;;;62.42;27.52;;;-1.70;99.90;;;;;;5073145;28;20029;-65
2023/11/30 03:29:21;;;;;;;64.18;28.63;;;-1.70;99.90;;;;;;5073094;28;20033;-65
2023/11/30 03:31:46;;;;;;;61.20;27.40;;;-1.60;99.90;;;;;;5073464;28;20079;-65
2023/11/30 03:34:12;;;;;;;59.50;26.45;;;-1.60;99.90;;;;;;5073414;28;20062;-67
2023/11/30 03:36:37;;;;;;;56.90;26.23;;;-1.50;99.90;;;;;;5073024;28;20127;-64
2023/11/30 03:39:04;;;;;;;58.03;26.02;;;-1.50;99.90;;;;;;5072827;28;20067;-65
2023/11/30 03:41:29;;;;;;;60.17;26.75;;;-1.50;99.90;;;;;;5073145;28;20047;-65
2023/11/30 03:43:55;;;;;;;67.38;30.40;;;-1.40;99.90;;;;;;5072832;28;20025;-64
2023/11/30 03:46:24;;;;;;;71.63;31.67;;;-1.50;99.90;;;;;;5073148;28;20025;-65
2023/11/30 03:48:52;;;;;;;62.65;28.50;;;-1.40;99.90;;;;;;5073335;28;20108;-65
2023/11/30 03:51:18;;;;;;;67.70;29.60;;;-1.50;99.90;;;;;;5073299;28;20112;-64
2023/11/30 03:53:43;;;;;;;65.65;29.52;;;-1.40;99.90;;;;;;5073260;28;20447;-65
2023/11/30 03:56:09;;;;;;;66.85;30.27;;;-1.30;99.90;;;;;;5073125;28;20032;-65
2023/11/30 03:58:35;;;;;;;64.28;30.13;;;-1.30;99.90;;;;;;5072990;28;20033;-64
2023/11/30 04:01:00;;;;;;;73.75;31.58;;;-1.20;99.90;;;;;;5072757;28;20077;-65
2023/11/30 04:03:26;;;;;;;64.55;29.92;;;-1.10;99.90;;;;;;5073183;28;20025;-64
2023/11/30 04:05:52;;;;;;;70.93;31.35;;;-1.10;99.90;;;;;;5073088;28;20433;-65
2023/11/30 04:08:17;;;;;;;72.45;29.90;;;-1.10;99.90;;;;;;5073113;28;20024;-65
2023/11/30 04:10:43;;;;;;;60.42;28.92;;;-1.10;99.90;;;;;;5072710;28;20059;-65
2023/11/30 04:13:09;;;;;;;61.42;28.27;;;-1.20;99.90;;;;;;5072841;28;20079;-65
2023/11/30 04:15:35;;;;;;;64.00;27.92;;;-1.20;99.90;;;;;;5072940;28;20486;-64
2023/11/30 04:18:00;;;;;;;62.38;27.50;;;-1.20;99.90;;;;;;5072723;28;20021;-65
2023/11/30 04:20:26;;;;;;;59.40;27.60;;;-1.20;99.90;;;;;;5076156;28;20031;-65
2023/11/30 04:22:51;;;;;;;64.32;27.40;;;-1.20;99.90;;;;;;5076323;28;20025;-65
2023/11/30 04:25:17;;;;;;;73.63;31.88;;;-1.20;99.90;;;;;;5076621;28;20103;-65
2023/11/30 04:27:42;;;;;;;65.97;29.35;;;-1.20;99.90;;;;;;5076911;28;20111;-64
2023/11/30 04:30:08;;;;;;;58.75;27.98;;;-1.20;99.90;;;;;;5076597;28;20126;-65
2023/11/30 04:32:34;;;;;;;59.28;27.70;;;-1.20;99.90;;;;;;5076609;28;20024;-65
2023/11/30 04:34:59;;;;;;;62.15;29.40;;;-1.30;99.90;;;;;;5076564;28;20032;-64
2023/11/30 04:37:25;;;;;;;69.57;30.60;;;-1.30;99.90;;;;;;5076084;28;20045;-65
2023/11/30 04:39:50;;;;;;;65.53;29.42;;;-1.20;99.90;;;;;;5076473;28;20526;-64
2023/11/30 04:42:16;;;;;;;71.13;30.42;;;-1.20;99.90;;;;;;5076387;28;20025;-64
2023/11/30 04:44:42;;;;;;;71.28;31.15;;;-1.20;99.90;;;;;;5076323;28;20029;-64
2023/11/30 04:47:07;;;;;;;67.53;31.40;;;-1.10;99.90;;;;;;5076132;28;20039;-65
2023/11/30 04:49:33;;;;;;;72.05;31.33;;;-1.20;99.90;;;;;;5075958;28;20032;-65
2023/11/30 04:51:58;;;;;;;73.88;31.02;;;-1.10;99.90;;;;;;5076297;28;20037;-64
2023/11/30 04:54:24;;;;;;;71.82;32.13;;;-1.10;99.90;;;;;;5076339;28;20036;-65
2023/11/30 04:56:50;;;;;;;82.28;33.60;;;-1.00;99.90;;;;;;5075853;28;20032;-65
2023/11/30 04:59:15;;;;;;;84.47;34.13;;;-1.00;99.90;;;;;;5076197;28;20036;-65
2023/11/30 05:01:41;;;;;;;70.70;31.60;;;-0.90;99.90;;;;;;5075948;28;20025;-64
2023/11/30 05:04:06;;;;;;;72.85;30.98;;;-0.90;99.90;;;;;;5076025;28;20029;-64
2023/11/30 05:06:32;;;;;;;78.80;32.20;;;-0.90;99.90;;;;;;5075977;28;20036;-64
2023/11/30 05:08:57;;;;;;;79.80;32.95;;;-0.90;99.90;;;;;;5075588;28;20056;-64
2023/11/30 05:11:23;;;;;;;78.25;33.88;;;-0.80;99.90;;;;;;5075470;28;20115;-64
2023/11/30 05:13:48;;;;;;;77.25;32.00;;;-0.80;99.90;;;;;;5075708;28;20437;-66
2023/11/30 05:16:14;;;;;;;83.80;33.95;;;-0.80;99.90;;;;;;5075766;28;20074;-64
2023/11/30 05:18:40;;;;;;;77.72;33.00;;;-0.80;99.90;;;;;;5075280;28;20397;-64
2023/11/30 05:21:06;;;;;;;78.13;32.10;;;-0.80;99.90;;;;;;5075851;28;20024;-64
2023/11/30 05:23:31;;;;;;;81.82;32.47;;;-0.80;99.90;;;;;;5075695;28;20363;-64
2023/11/30 05:25:57;;;;;;;78.95;32.35;;;-0.80;99.90;;;;;;5075621;28;20052;-65
2023/11/30 05:28:23;;;;;;;68.88;31.20;;;-0.80;99.90;;;;;;5075462;28;20017;-64
2023/11/30 05:30:49;;;;;;;71.47;30.92;;;-0.80;99.90;;;;;;5074887;28;20055;-65
2023/11/30 05:33:15;;;;;;;77.90;32.00;;;-0.70;99.90;;;;;;5075040;28;20029;-64
2023/11/30 05:35:41;;;;;;;70.45;31.25;;;-0.80;99.90;;;;;;5074844;28;20040;-65
2023/11/30 05:38:06;;;;;;;66.65;30.00;;;-0.80;99.90;;;;;;5075022;28;20029;-65
2023/11/30 05:40:32;;;;;;;63.90;27.85;;;-0.80;99.90;;;;;;5075299;28;20028;-65
2023/11/30 05:42:57;;;;;;;78.63;33.05;;;-0.80;99.90;;;;;;5075227;28;20029;-64
2023/11/30 05:45:23;;;;;;;78.57;31.38;;;-0.80;99.90;;;;;;5075109;28;20114;-64
2023/11/30 05:47:48;;;;;;;78.38;31.77;;;-0.80;99.90;;;;;;5075248;28;20033;-65
2023/11/30 05:50:14;;;;;;;74.32;31.75;;;-0.80;99.90;;;;;;5075375;28;20024;-64
2023/11/30 05:52:40;;;;;;;79.30;30.92;;;-0.80;99.90;;;;;;5074736;28;20033;-65
2023/11/30 05:55:07;;;;;;;72.05;31.60;;;-0.80;99.90;;;;;;5074992;28;20024;-64
2023/11/30 05:57:33;;;;;;;69.82;30.95;;;-0.80;99.90;;;;;;5074870;28;20039;-64
2023/11/30 05:59:58;;;;;;;73.90;32.70;;;-0.80;99.90;;;;;;5074537;28;20119;-64
2023/11/30 06:02:24;;;;;;;68.15;29.90;;;-0.80;99.90;;;;;;5074885;28;20032;-64
2023/11/30 06:04:51;;;;;;;79.15;32.58;;;-0.90;99.90;;;;;;5074909;28;20024;-65
2023/11/30 06:07:17;;;;;;;72.03;30.17;;;-0.90;99.90;;;;;;5075069;28;20039;-64
2023/11/30 06:09:42;;;;;;;67.85;29.65;;;-0.90;99.90;;;;;;5074789;28;20036;-64
2023/11/30 06:12:08;;;;;;;64.32;29.15;;;-0.90;99.90;;;;;;5074746;28;20108;-64
2023/11/30 06:14:34;;;;;;;66.55;27.77;;;-1.00;99.90;;;;;;5074661;28;20032;-64
2023/11/30 06:17:00;;;;;;;62.33;28.65;;;-1.00;99.90;;;;;;5074605;28;20025;-64
2023/11/30 06:19:25;;;;;;;61.92;27.20;;;-1.10;99.90;;;;;;5074584;28;20032;-64
2023/11/30 06:21:51;;;;;;;57.67;25.63;;;-1.10;99.90;;;;;;5074579;28;20362;-64
2023/11/30 06:24:16;;;;;;;55.60;26.52;;;-1.20;99.90;;;;;;5074648;28;20025;-64
2023/11/30 06:26:42;;;;;;;68.05;27.85;;;-1.20;99.90;;;;;;5074214;28;20035;-64
2023/11/30 06:29:11;;;;;;;60.97;27.02;;;-1.30;99.90;;;;;;5074413;28;20056;-64
2023/11/30 06:31:37;;;;;;;72.70;29.52;;;-1.30;99.90;;;;;;5074387;28;20039;-64
2023/11/30 06:34:03;;;;;;;74.97;31.38;;;-1.30;99.90;;;;;;5073849;28;20025;-64
2023/11/30 06:36:29;;;;;;;70.57;28.92;;;-1.30;99.90;;;;;;5073962;28;20098;-64
2023/11/30 06:38:54;;;;;;;70.90;30.25;;;-1.30;99.90;;;;;;5073882;28;20017;-64
2023/11/30 06:41:20;;;;;;;73.80;31.38;;;-1.30;99.90;;;;;;5073675;28;20024;-65
2023/11/30 06:43:45;;;;;;;61.65;27.02;;;-1.40;99.90;;;;;;5074136;28;20048;-64
2023/11/30 06:46:26;;;;;;;64.57;28.33;;;-1.50;99.90;;;;;;5073826;28;20028;-65
2023/11/30 06:48:51;;;;;;;68.18;29.02;;;-1.50;99.90;;;;;;5073998;28;20043;-65
2023/11/30 06:51:18;;;;;;;71.20;29.92;;;-1.50;99.90;;;;;;5072540;28;20032;-64
2023/11/30 06:53:43;;;;;;;72.70;30.40;;;-1.50;99.90;;;;;;5073665;28;20029;-64
2023/11/30 06:56:11;;;;;;;72.47;30.75;;;-1.50;99.90;;;;;;5073645;28;20043;-65
2023/11/30 06:58:37;;;;;;;78.15;29.52;;;-1.50;99.90;;;;;;5073530;28;20064;-65
2023/11/30 07:01:06;;;;;;;72.07;29.55;;;-1.40;99.90;;;;;;5073645;28;20021;-64
2023/11/30 07:03:32;;;;;;;72.75;31.15;;;-1.40;99.90;;;;;;5073744;28;20435;-64
2023/11/30 07:05:57;;;;;;;73.63;31.20;;;-1.40;99.90;;;;;;5073344;28;20052;-65
2023/11/30 07:08:23;;;;;;;74.05;31.50;;;-1.30;99.90;;;;;;5073664;28;20498;-65
2023/11/30 07:10:49;;;;;;;71.05;29.73;;;-1.30;99.90;;;;;;5073746;28;20478;-64
2023/11/30 07:13:16;;;;;;;72.68;30.60;;;-1.30;99.90;;;;;;5073833;28;20054;-65
2023/11/30 07:15:43;;;;;;;73.38;30.20;;;-1.30;99.90;;;;;;5070926;28;20020;-65
2023/11/30 07:18:09;;;;;;;70.97;30.30;;;-1.30;99.90;;;;;;5057602;28;20029;-65
2023/11/30 07:20:34;;;;;;;77.78;33.10;;;-1.30;99.90;;;;;;5069806;28;20035;-65
2023/11/30 07:23:00;;;;;;;77.22;33.42;;;-1.20;99.90;;;;;;5073145;28;20048;-65
2023/11/30 07:25:25;;;;;;;80.25;33.45;;;-1.10;99.90;;;;;;5073129;28;20461;-65
2023/11/30 07:27:53;;;;;;;96.38;39.63;;;-1.10;99.90;;;;;;5073053;28;20099;-65
2023/11/30 07:30:19;;;;;;;106.93;39.95;;;-0.90;99.90;;;;;;5073496;28;20063;-65
2023/11/30 07:32:44;;;;;;;98.63;40.25;;;-0.70;99.90;;;;;;5066334;28;20490;-64
2023/11/30 07:35:10;;;;;;;94.05;39.20;;;-0.60;99.90;;;;;;5072235;28;20036;-64
2023/11/30 07:37:35;;;;;;;91.38;37.60;;;-0.50;99.90;;;;;;5070807;28;20056;-65
2023/11/30 07:40:01;;;;;;;94.15;38.25;;;-0.50;99.90;;;;;;5071700;28;20082;-65
2023/11/30 07:42:26;;;;;;;79.85;34.63;;;-0.50;99.90;;;;;;5069642;28;20110;-65
2023/11/30 07:44:54;;;;;;;84.18;36.72;;;-0.40;99.90;;;;;;5071380;28;20029;-65
2023/11/30 07:47:20;;;;;;;71.45;32.33;;;-0.30;99.90;;;;;;5070505;28;20025;-66
2023/11/30 07:49:46;;;;;;;77.63;34.28;;;-0.30;99.90;;;;;;5070997;28;20029;-65
2023/11/30 07:52:13;;;;;;;73.93;33.28;;;-0.30;99.90;;;;;;5068733;28;20123;-64
2023/11/30 07:54:38;;;;;;;82.47;33.58;;;-0.20;99.90;;;;;;5074205;28;20544;-65
2023/11/30 07:57:04;;;;;;;76.45;33.15;;;-0.20;99.90;;;;;;5075327;28;20032;-64
2023/11/30 07:59:29;;;;;;;74.60;33.13;;;-0.10;99.90;;;;;;5075742;28;20028;-65
2023/11/30 08:01:55;;;;;;;78.85;34.10;;;-0.10;99.90;;;;;;5076778;28;20067;-65
2023/11/30 08:04:20;;;;;;;68.63;31.13;;;0.00;99.90;;;;;;5073766;28;20040;-66
2023/11/30 08:06:46;;;;;;;68.25;31.48;;;0.00;99.90;;;;;;5056959;28;20033;-65
2023/11/30 08:09:13;;;;;;;69.28;31.35;;;0.10;99.90;;;;;;5063213;28;20029;-65
2023/11/30 08:11:40;;;;;;;78.47;34.38;;;0.30;99.90;;;;;;5076847;28;20036;-66
2023/11/30 08:14:06;;;;;;;76.45;34.03;;;0.90;99.90;;;;;;5076921;28;20551;-67
2023/11/30 08:16:32;;;;;;;69.25;33.67;;;1.70;99.90;;;;;;5076671;28;20038;-66
2023/11/30 08:18:58;;;;;;;58.95;30.88;;;2.30;99.90;;;;;;5076894;28;20489;-65
2023/11/30 08:21:23;;;;;;;58.17;29.77;;;2.30;99.90;;;;;;5071055;28;20057;-66
2023/11/30 08:23:49;;;;;;;52.38;27.50;;;2.10;99.90;;;;;;5067896;28;20029;-65
2023/11/30 08:26:15;;;;;;;56.63;27.05;;;1.70;99.90;;;;;;5056647;28;20025;-65
2023/11/30 08:28:44;;;;;;;56.70;26.33;;;1.20;99.90;;;;;;5056800;28;20021;-65
2023/11/30 08:31:10;;;;;;;49.13;26.63;;;1.10;99.90;;;;;;5066770;28;20194;-65
2023/11/30 08:33:35;;;;;;;49.50;25.73;;;0.90;99.90;;;;;;5076453;28;20025;-66
2023/11/30 08:36:04;;;;;;;51.63;25.58;;;1.20;99.90;;;;;;5075867;28;20047;-66
2023/11/30 08:38:30;;;;;;;45.60;24.23;;;1.30;99.90;;;;;;5059545;28;20040;-66
2023/11/30 08:40:55;;;;;;;47.83;23.95;;;1.40;99.90;;;;;;5060145;28;20032;-66
2023/11/30 08:43:21;;;;;;;47.88;25.63;;;1.50;99.90;;;;;;5075977;28;20020;-66
2023/11/30 08:45:46;;;;;;;43.40;24.23;;;1.90;99.90;;;;;;5076406;28;20078;-67
2023/11/30 08:48:12;;;;;;;40.63;22.13;;;;;;;;;;5076256;28;20078;-66
2023/11/30 08:50:38;;;;;;;34.05;20.02;;;3.60;99.90;;;;;;5076244;28;20530;-66
2023/11/30 08:53:03;;;;;;;32.35;18.60;;;3.80;99.90;;;;;;5076133;28;20399;-66
2023/11/30 08:55:29;;;;;;;30.83;18.13;;;3.70;99.90;;;;;;5075773;28;20074;-66
2023/11/30 08:57:54;;;;;;;29.35;18.45;;;4.00;99.90;;;;;;5075856;28;20068;-66
2023/11/30 09:00:21;;;;;;;31.30;19.27;;;;;;;;;;5074289;28;20032;-67
2023/11/30 09:02:47;;;;;;;30.00;17.95;;;4.70;99.90;;;;;;5068924;28;20440;-65
2023/11/30 09:05:13;;;;;;;31.38;17.98;;;5.30;99.90;;;;;;5061474;28;20078;-65
2023/11/30 09:07:38;;;;;;;28.17;17.27;;;5.50;99.90;;;;;;5075584;28;20036;-66
2023/11/30 09:10:04;;;;;;;28.38;16.98;;;5.70;99.90;;;;;;5075340;28;20025;-65
2023/11/30 09:12:30;;;;;;;24.48;16.60;;;;;;;;;;5075598;28;20028;-65
2023/11/30 09:14:57;;;;;;;22.92;16.10;;;6.40;99.90;;;;;;5063915;28;20040;-66
2023/11/30 09:17:23;;;;;;;24.40;16.10;;;7.00;99.90;;;;;;5067119;28;20028;-66
2023/11/30 09:19:49;;;;;;;22.65;15.70;;;7.30;52.10;;;;;;5064015;28;20020;-66
2023/11/30 09:22:15;;;;;;;23.17;15.70;;;7.50;1.00;;;;;;5055148;28;20017;-66
2023/11/30 09:24:40;;;;;;;26.20;16.92;;;7.10;1.00;;;;;;5065237;28;20420;-66
2023/11/30 09:27:08;;;;;;;25.15;16.85;;;6.70;22.90;;;;;;5075528;28;20031;-65
2023/11/30 09:29:36;;;;;;;24.50;16.48;;;6.40;12.70;;;;;;5075511;28;20161;-66
2023/11/30 09:32:03;;;;;;;24.48;16.75;;;6.20;1.00;;;;;;5075348;28;20028;-66
2023/11/30 09:34:29;;;;;;;25.33;16.63;;;6.00;1.00;;;;;;5075569;28;20074;-66
2023/11/30 09:36:55;;;;;;;25.02;16.55;;;6.30;1.00;;;;;;5073671;28;20048;-66
2023/11/30 09:39:21;;;;;;;23.70;16.27;;;6.20;1.00;;;;;;5057820;28;20039;-68
2023/11/30 09:41:47;;;;;;;23.52;15.65;;;6.70;1.00;;;;;;5062380;28;20027;-66
2023/11/30 09:44:12;;;;;;;20.98;15.50;;;7.20;1.00;;;;;;5066441;28;20394;-66
2023/11/30 09:46:38;;;;;;;24.95;16.83;;;7.50;99.90;;;;;;5075168;28;20029;-66
2023/11/30 09:49:06;;;;;;;25.73;16.92;;;7.60;99.90;;;;;;5075190;28;20020;-67
2023/11/30 09:51:33;;;;;;;26.85;16.20;;;7.60;99.90;;;;;;5074641;28;20056;-67
2023/11/30 09:53:59;;;;;;;27.65;17.13;;;7.40;91.40;;;;;;5075050;28;20032;-66
2023/11/30 09:56:26;;;;;;;23.10;16.38;;;7.20;99.90;;;;;;5074934;28;20424;-66
2023/11/30 09:58:52;;;;;;;24.23;15.50;;;7.50;99.90;;;;;;5074591;28;20439;-66
2023/11/30 10:01:17;;;;;;;22.90;15.93;;;8.00;99.90;;;;;;5056385;28;20025;-70
2023/11/30 10:03:43;;;;;;;25.58;16.42;;;8.00;1.00;;;;;;5054802;28;20222;-70
2023/11/30 10:06:09;;;;;;;22.23;16.65;;;8.10;1.00;;;;;;5054737;28;20056;-70
2023/11/30 10:08:34;;;;;;;23.17;17.08;;;8.10;99.90;;;;;;5054454;28;20028;-70
2023/11/30 10:11:00;;;;;;;23.83;17.73;;;8.20;1.00;;;;;;5060325;28;20041;-69
2023/11/30 10:13:25;;;;;;;23.63;17.48;;;8.40;1.00;;;;;;5061294;28;20380;-70
2023/11/30 10:15:51;;;;;;;23.60;17.30;;;8.40;99.90;;;;;;5063849;28;20505;-69
2023/11/30 10:18:16;;;;;;;27.90;17.52;;;8.40;99.90;;;;;;5057150;28;20546;-70
2023/11/30 10:20:42;;;;;;;21.90;16.27;;;8.30;1.00;;;;;;5054377;28;20027;-70
2023/11/30 10:23:09;;;;;;;24.33;16.95;;;8.90;1.00;;;;;;5063629;28;20033;-70
2023/11/30 10:25:35;;;;;;;21.17;16.10;;;9.20;99.90;;;;;;5068200;28;20149;-70
2023/11/30 10:28:02;;;;;;;23.10;16.27;;;9.10;1.00;;;;;;5074308;28;20028;-70
2023/11/30 10:30:31;;;;;;;21.30;16.35;;;9.10;1.00;;;;;;5071262;28;20035;-71
2023/11/30 10:32:58;;;;;;;23.67;16.15;;;9.20;1.00;;;;;;5073595;28;20435;-70
2023/11/30 10:35:27;;;;;;;28.23;17.27;;;9.50;99.90;;;;;;5073539;28;20025;-70
2023/11/30 10:37:57;;;;;;;20.58;15.35;;;9.70;99.90;;;;;;5071277;28;20441;-70
2023/11/30 10:40:25;;;;;;;20.70;16.23;;;9.50;1.00;;;;;;5074135;28;20031;-70
2023/11/30 10:42:51;;;;;;;24.02;15.82;;;9.50;99.90;;;;;;5074042;28;20024;-70
2023/11/30 10:45:19;;;;;;;21.25;15.05;;;8.90;1.00;;;;;;5072766;28;20383;-70
2023/11/30 10:47:46;;;;;;;21.25;15.70;;;9.90;99.90;;;;;;5070903;28;20509;-70
2023/11/30 10:50:12;;;;;;;20.20;14.80;;;9.90;99.90;;;;;;5073425;28;20032;-70
2023/11/30 10:52:39;;;;;;;20.63;14.95;;;10.10;30.10;;;;;;5073737;28;20363;-72
2023/11/30 10:55:11;;;;;;;21.17;14.35;;;9.90;99.90;;;;;;5073398;28;20029;-71
2023/11/30 10:57:42;;;;;;;16.42;13.18;;;10.20;1.00;;;;;;5073303;28;20059;-71
2023/11/30 11:00:13;;;;;;;18.63;14.13;;;10.40;1.00;;;;;;5073658;28;20383;-71
2023/11/30 11:02:43;;;;;;;20.38;13.85;;;10.80;1.00;;;;;;5073515;28;20056;-70
2023/11/30 11:05:12;;;;;;;15.60;12.30;;;11.20;45.80;;;;;;5073618;28;20083;-71
2023/11/30 11:07:42;;;;;;;18.55;13.52;;;10.10;99.90;;;;;;5073314;28;20024;-71
2023/11/30 11:10:08;;;;;;;17.88;13.90;;;9.40;99.90;;;;;;5073543;28;20028;-71
2023/11/30 11:12:37;;;;;;;19.90;13.98;;;8.80;1.00;;;;;;5073592;28;20078;-71
2023/11/30 11:15:08;;;;;;;19.60;13.48;;;8.00;99.90;;;;;;5072060;28;20039;-71
2023/11/30 11:17:43;;;;;;;22.05;14.45;;;7.60;99.90;;;;;;5069317;28;20031;-70
2023/11/30 11:20:22;;;;;;;20.90;14.38;;;7.50;1.00;;;;;;5069504;28;20479;-72
2023/11/30 11:22:51;;;;;;;20.70;14.57;;;7.40;1.00;;;;;;5073591;28;20158;-71
2023/11/30 11:25:17;;;;;;;23.70;15.88;;;7.40;54.60;;;;;;5064381;28;20115;-72
2023/11/30 11:27:43;;;;;;;21.75;15.00;;;6.80;99.90;;;;;;5052707;28;20028;-72
2023/11/30 11:30:10;;;;;;;22.05;15.05;;;6.70;99.90;;;;;;5053292;28;20032;-69
2023/11/30 11:32:39;;;;;;;23.42;15.77;;;6.30;99.90;;;;;;5062567;28;20393;-70
2023/11/30 11:35:05;;;;;;;23.48;15.68;;;6.10;99.90;;;;;;5073345;28;20056;-71
2023/11/30 11:37:31;;;;;;;21.55;13.98;;;6.10;1.00;;;;;;5072574;28;20433;-71
2023/11/30 11:39:59;;;;;;;24.00;14.45;;;6.30;1.00;;;;;;5073368;28;20094;-71
2023/11/30 11:42:25;;;;;;;23.73;14.95;;;6.00;99.90;;;;;;5073306;28;20482;-71
2023/11/30 11:44:50;;;;;;;21.58;14.50;;;6.30;99.90;;;;;;5073289;28;20047;-72
2023/11/30 11:47:17;;;;;;;21.83;13.88;;;5.90;99.90;;;;;;5073195;28;20033;-71
2023/11/30 11:49:42;;;;;;;22.58;13.82;;;6.00;99.90;;;;;;5072962;28;20402;-71
2023/11/30 11:52:09;;;;;;;20.95;13.77;;;5.80;99.90;;;;;;5072160;28;20029;-71
2023/11/30 11:54:35;;;;;;;20.17;13.55;;;5.60;1.00;;;;;;5061603;28;20025;-72
2023/11/30 11:57:04;;;;;;;21.48;13.90;;;5.70;1.00;;;;;;5072264;28;20411;-72
2023/11/30 11:59:30;;;;;;;26.08;15.05;;;5.80;1.00;;;;;;5071949;28;20141;-72
2023/11/30 12:01:57;;;;;;;22.58;14.48;;;5.80;1.00;;;;;;5072349;28;20129;-72
2023/11/30 12:04:29;;;;;;;24.27;13.77;;;5.90;1.00;;;;;;5072613;28;20076;-72
2023/11/30 12:06:56;;;;;;;24.73;15.07;;;5.70;1.00;;;;;;5072685;28;20127;-72
2023/11/30 12:09:22;;;;;;;21.90;13.68;;;5.70;1.00;;;;;;5073178;28;20116;-72
2023/11/30 12:11:47;;;;;;;23.40;13.68;;;5.80;1.00;;;;;;5072942;28;20122;-72
2023/11/30 12:14:14;;;;;;;20.40;13.55;;;6.00;1.00;;;;;;5072905;28;20028;-72
2023/11/30 12:16:42;;;;;;;20.40;13.05;;;6.00;1.00;;;;;;5072841;28;20115;-72
2023/11/30 12:19:07;;;;;;;18.23;12.60;;;5.90;99.90;;;;;;5072858;28;20116;-72
2023/11/30 12:21:35;;;;;;;22.55;13.32;;;5.80;99.90;;;;;;5072561;28;20154;-72
2023/11/30 12:24:01;;;;;;;18.55;12.05;;;5.90;1.00;;;;;;5072821;28;20044;-72
2023/11/30 12:26:27;;;;;;;19.95;13.20;;;5.90;99.90;;;;;;5072505;28;20588;-72